createdAt,value
2019-04-06T00:01:34.652Z,33.17
2019-04-06T00:06:36.143Z,31.27
2019-04-06T00:11:37.508Z,32.67
2019-04-06T00:16:38.906Z,32.60
2019-04-06T00:21:40.255Z,31.53
2019-04-06T00:26:41.637Z,33.27
2019-04-06T00:31:56.878Z,32.70
2019-04-06T00:36:58.254Z,31.63
2019-04-06T00:41:59.835Z,33.23
2019-04-06T00:47:01.322Z,32.13
2019-04-06T00:52:02.824Z,32.60
2019-04-06T00:57:04.289Z,31.97
2019-04-06T01:02:06.172Z,32.17
2019-04-06T01:07:07.645Z,31.43
2019-04-06T01:12:09.027Z,32.77
2019-04-06T01:17:10.461Z,32.23
2019-04-06T01:22:11.782Z,31.83
2019-04-06T01:27:13.175Z,32.27
2019-04-06T01:32:14.554Z,33.20
2019-04-06T01:37:16.314Z,31.63
2019-04-06T01:42:17.799Z,32.97
2019-04-06T01:47:19.158Z,32.53
2019-04-06T01:52:20.608Z,34.47
2019-04-06T01:57:22.086Z,33.87
2019-04-06T02:02:28.248Z,33.17
2019-04-06T02:07:29.632Z,34.03
2019-04-06T02:12:31.013Z,32.93
2019-04-06T02:17:32.395Z,33.97
2019-04-06T02:22:33.725Z,33.50
2019-04-06T02:27:35.124Z,33.73
2019-04-06T02:32:38.395Z,34.37
2019-04-06T02:37:44.504Z,34.03
2019-04-06T02:42:50.948Z,33.90
2019-04-06T02:47:52.293Z,34.60
2019-04-06T02:52:53.661Z,32.67
2019-04-06T02:57:55.208Z,33.07
2019-04-06T03:02:56.785Z,33.43
2019-04-06T03:07:58.203Z,33.80
2019-04-06T03:12:59.557Z,34.43
2019-04-06T03:18:01.006Z,34.20
2019-04-06T03:23:02.548Z,33.50
2019-04-06T03:28:04.099Z,35.73
2019-04-06T03:33:05.753Z,33.57
2019-04-06T03:38:07.227Z,33.50
2019-04-06T03:43:08.679Z,34.67
2019-04-06T03:48:10.214Z,34.67
2019-04-06T03:53:11.562Z,34.23
2019-04-06T03:58:12.888Z,34.37
2019-04-06T04:03:14.201Z,35.30
2019-04-06T04:08:15.751Z,35.20
2019-04-06T04:13:17.088Z,34.90
2019-04-06T04:18:18.382Z,33.60
2019-04-06T04:23:20.019Z,34.53
2019-04-06T04:28:21.321Z,33.97
2019-04-06T04:33:22.658Z,34.33
2019-04-06T04:38:23.971Z,34.10
2019-04-06T04:43:25.672Z,34.20
2019-04-06T04:48:27.040Z,33.97
2019-04-06T04:53:28.461Z,34.13
2019-04-06T04:58:29.917Z,33.27
2019-04-06T05:03:31.290Z,33.20
2019-04-06T05:08:32.783Z,33.27
2019-04-06T05:13:34.141Z,32.83
2019-04-06T05:18:35.508Z,33.73
2019-04-06T05:23:37.015Z,33.73
2019-04-06T05:28:38.324Z,34.27
2019-04-06T05:33:39.648Z,33.80
2019-04-06T05:38:40.960Z,32.13
2019-04-06T05:43:42.332Z,32.83
2019-04-06T05:48:43.633Z,32.13
2019-04-06T05:53:44.965Z,32.67
2019-04-06T05:58:46.275Z,32.77
2019-04-06T06:03:47.740Z,32.60
2019-04-06T06:08:49.040Z,32.20
2019-04-06T06:13:50.374Z,32.40
2019-04-06T06:18:51.718Z,32.73
2019-04-06T06:23:53.260Z,31.93
2019-04-06T06:28:54.553Z,30.10
2019-04-06T06:33:55.886Z,31.77
2019-04-06T06:38:57.192Z,31.43
2019-04-06T06:43:58.536Z,31.47
2019-04-06T06:48:59.968Z,30.17
2019-04-06T06:54:01.462Z,33.00
2019-04-06T06:59:03.105Z,31.63
2019-04-06T07:04:04.745Z,30.87
2019-04-06T07:09:07.162Z,31.00
2019-04-06T07:14:08.568Z,31.23
2019-04-06T07:19:09.962Z,31.53
2019-04-06T07:24:11.387Z,30.23
2019-04-06T07:29:12.716Z,31.17
2019-04-06T07:34:14.021Z,31.80
2019-04-06T07:39:15.343Z,30.30
2019-04-06T07:44:16.660Z,29.20
2019-04-06T07:49:17.992Z,29.40
2019-04-06T07:54:19.329Z,27.90
2019-04-06T07:59:20.650Z,24.80
2019-04-06T08:04:22.003Z,24.60
2019-04-06T08:09:23.306Z,28.93
2019-04-06T08:14:24.855Z,29.60
2019-04-06T08:19:26.263Z,27.20
2019-04-06T08:24:27.671Z,23.70
2019-04-06T08:29:29.236Z,25.17
2019-04-06T08:34:30.637Z,26.10
2019-04-06T08:39:31.960Z,26.03
2019-04-06T08:44:33.308Z,23.53
2019-04-06T08:49:34.811Z,23.13
2019-04-06T08:54:36.170Z,22.17
2019-04-06T08:59:37.500Z,23.13
2019-04-06T09:04:38.813Z,21.30
2019-04-06T09:09:40.138Z,23.77
2019-04-06T09:14:41.473Z,22.63
2019-04-06T09:19:42.784Z,21.03
2019-04-06T09:24:44.103Z,20.80
2019-04-06T09:29:45.454Z,20.30
2019-04-06T09:34:46.780Z,20.10
2019-04-06T09:39:48.134Z,18.40
2019-04-06T09:45:07.935Z,18.07
2019-04-06T09:50:11.281Z,16.87
2019-04-06T09:55:17.457Z,18.50
2019-04-06T10:00:39.275Z,16.53
2019-04-06T10:05:45.302Z,16.03
2019-04-06T10:10:48.674Z,16.13
2019-04-06T10:15:57.613Z,16.43
2019-04-06T10:21:12.966Z,16.40
2019-04-06T10:26:28.320Z,16.23
2019-04-06T10:31:50.141Z,15.63
2019-04-06T10:37:11.687Z,15.53
2019-04-06T10:42:15.646Z,13.87
2019-04-06T10:47:21.927Z,14.37
2019-04-06T10:52:39.163Z,13.03
2019-04-06T10:57:56.092Z,13.57
2019-04-06T11:03:11.330Z,12.67
2019-04-06T11:08:31.355Z,13.77
2019-04-06T11:13:51.047Z,12.87
2019-04-06T11:18:54.328Z,8.87
2019-04-06T11:24:03.903Z,9.07
2019-04-06T11:29:19.202Z,10.33
2019-04-06T11:34:39.165Z,8.17
2019-04-06T11:39:58.946Z,8.13
2019-04-06T11:45:17.364Z,7.70
2019-04-06T11:50:30.210Z,7.80
2019-04-06T11:55:36.297Z,7.50
2019-04-06T12:00:39.738Z,7.20
2019-04-06T12:05:43.058Z,9.13
2019-04-06T12:11:03.989Z,8.63
2019-04-06T12:16:07.574Z,7.57
2019-04-06T12:21:27.554Z,8.90
2019-04-06T12:26:36.502Z,9.10
2019-04-06T12:31:45.766Z,9.80
2019-04-06T12:37:02.609Z,9.97
2019-04-06T12:42:25.981Z,9.07
2019-04-06T12:47:29.565Z,8.80
2019-04-06T12:52:35.656Z,9.90
2019-04-06T12:57:41.922Z,11.17
2019-04-06T13:03:01.870Z,10.27
2019-04-06T13:08:05.486Z,9.27
2019-04-06T13:13:20.972Z,9.97
2019-04-06T13:18:36.227Z,10.47
2019-04-06T13:23:39.731Z,10.20
2019-04-06T13:28:46.051Z,10.47
2019-04-06T13:33:58.468Z,10.07
2019-04-06T13:39:10.708Z,10.17
2019-04-06T13:44:22.635Z,10.83
2019-04-06T13:49:25.883Z,11.40
2019-04-06T13:54:44.453Z,10.70
2019-04-06T13:59:50.425Z,10.87
2019-04-06T14:04:59.377Z,11.70
2019-04-06T14:10:02.674Z,11.33
2019-04-06T14:15:07.189Z,11.00
2019-04-06T14:20:27.197Z,9.00
2019-04-06T14:25:30.420Z,10.27
2019-04-06T14:30:33.735Z,9.13
2019-04-06T14:35:37.078Z,10.10
2019-04-06T14:40:40.353Z,11.00
2019-04-06T14:45:49.854Z,11.23
2019-04-06T14:51:04.891Z,12.73
2019-04-06T14:56:08.200Z,11.80
2019-04-06T15:01:38.437Z,11.33
2019-04-06T15:06:47.013Z,11.43
2019-04-06T15:11:50.486Z,12.03
2019-04-06T15:16:53.898Z,12.17
2019-04-06T15:22:14.130Z,11.50
2019-04-06T15:27:26.241Z,11.87
2019-04-06T15:32:35.620Z,12.67
2019-04-06T15:37:55.707Z,11.67
2019-04-06T15:42:59.091Z,12.00
2019-04-06T15:48:08.107Z,11.60
2019-04-06T15:53:28.392Z,11.00
2019-04-06T15:58:31.883Z,11.77
2019-04-06T16:03:50.509Z,11.93
2019-04-06T16:09:10.844Z,11.33
2019-04-06T16:14:16.653Z,12.20
2019-04-06T16:19:19.915Z,12.50
2019-04-06T16:24:39.939Z,12.47
2019-04-06T16:29:52.194Z,11.30
2019-04-06T16:35:01.560Z,11.90
2019-04-06T16:40:07.093Z,11.97
2019-04-06T16:45:10.654Z,11.73
2019-04-06T16:50:30.686Z,11.00
2019-04-06T16:55:34.366Z,12.00
2019-04-06T17:00:54.384Z,12.73
2019-04-06T17:06:14.985Z,11.63
2019-04-06T17:11:27.288Z,12.30
2019-04-06T17:16:30.575Z,12.07
2019-04-06T17:21:34.092Z,10.83
2019-04-06T17:26:54.816Z,11.47
2019-04-06T17:32:14.792Z,11.03
2019-04-06T17:37:20.064Z,11.57
2019-04-06T17:42:26.262Z,10.63
2019-04-06T17:47:35.394Z,11.03
2019-04-06T17:52:38.639Z,10.90
2019-04-06T17:57:44.715Z,11.27
2019-04-06T18:02:59.981Z,12.40
2019-04-06T18:08:06.043Z,12.73
2019-04-06T18:13:27.562Z,12.97
2019-04-06T18:18:29.161Z,13.23
2019-04-06T18:23:30.588Z,13.13
2019-04-06T18:28:31.984Z,12.23
2019-04-06T18:33:33.295Z,13.93
2019-04-06T18:38:39.202Z,13.37
2019-04-06T18:43:40.567Z,14.40
2019-04-06T18:48:42.122Z,14.20
2019-04-06T18:53:43.635Z,14.90
2019-04-06T18:58:44.975Z,15.53
2019-04-06T19:03:46.423Z,16.10
2019-04-06T19:08:47.805Z,16.23
2019-04-06T19:13:49.151Z,16.37
2019-04-06T19:18:51.012Z,14.90
2019-04-06T19:23:52.387Z,15.30
2019-04-06T19:28:53.770Z,14.67
2019-04-06T19:33:55.518Z,15.67
2019-04-06T19:38:57.831Z,16.20
2019-04-06T19:43:59.255Z,16.13
2019-04-06T19:49:01.199Z,15.47
2019-04-06T19:54:05.120Z,17.47
2019-04-06T19:59:07.046Z,17.97
2019-04-06T20:04:08.584Z,18.70
2019-04-06T20:09:10.099Z,26.10
2019-04-06T20:14:11.955Z,24.00
2019-04-06T20:19:13.342Z,22.63
2019-04-06T20:24:14.706Z,21.97
2019-04-06T20:29:16.058Z,19.63
2019-04-06T20:34:17.540Z,19.23
2019-04-06T20:39:18.915Z,19.60
2019-04-06T20:44:20.267Z,18.50
2019-04-06T20:49:22.066Z,19.57
2019-04-06T20:54:23.507Z,19.67
2019-04-06T20:59:25.695Z,19.33
2019-04-06T21:04:27.026Z,19.37
2019-04-06T21:09:28.412Z,21.83
2019-04-06T21:14:30.016Z,20.30
2019-04-06T21:19:31.570Z,19.63
2019-04-06T21:24:32.924Z,20.83
2019-04-06T21:29:34.579Z,21.13
2019-04-06T21:34:35.900Z,20.00
2019-04-06T21:39:37.287Z,19.63
2019-04-06T21:44:38.894Z,19.93
2019-04-06T21:49:40.246Z,20.30
2019-04-06T21:54:42.080Z,20.90
2019-04-06T21:59:43.466Z,20.80
2019-04-06T22:04:45.266Z,19.37
2019-04-06T22:09:46.958Z,18.83
2019-04-06T22:14:48.934Z,20.97
2019-04-06T22:19:50.519Z,19.70
2019-04-06T22:24:51.928Z,19.67
2019-04-06T22:29:54.258Z,19.93
2019-04-06T22:34:55.713Z,21.50
2019-04-06T22:39:57.084Z,21.00
2019-04-06T22:44:58.756Z,20.77
2019-04-06T22:50:00.496Z,24.40
2019-04-06T22:55:07.344Z,24.20
2019-04-06T23:00:12.438Z,25.70
2019-04-06T23:05:18.862Z,26.07
2019-04-06T23:10:20.395Z,26.57
2019-04-06T23:15:22.122Z,24.83
2019-04-06T23:20:23.556Z,25.97
2019-04-06T23:25:24.879Z,26.50
2019-04-06T23:30:26.525Z,25.33
2019-04-06T23:35:27.873Z,24.50
2019-04-06T23:40:29.507Z,26.57
2019-04-06T23:45:31.101Z,26.40
2019-04-06T23:50:33.055Z,26.00
2019-04-06T23:55:34.619Z,25.77
